»·PEaware :: UPS19 KPHX-KSFO

UPS19 :: KPHX-KSFO

FLIGHT INFORMATION

Flight Status: Arrived
Operator:
United Parcel Service
More flights by this operator :: More flights under this callsign
Pilot: Tim M. (868)
Aircraft: Boeing 747-8
(B748)
More flights by this aircraft type
Origin: KPHX Phoenix Sky Harbor Intl
United States
Destination: KSFO San Francisco Intl
United States
More flights between these airports :: More routes between these airports
Route: KEENS2 HRRBR CURIV J212 DECAS PMD AVE MAKRS SERFR SERFR4
File this flight plan on PilotEdge
Remarks:
Altitude:
(Current/Filed)
34,000ft
Speed:
(Current/Filed)
500kts
Departed: 06-Jul-20 02:32 PM
Arrived: 06-Jul-20 04:02 PM
Distance/Time
Traveled:
566nm/1:30
Distance/Time
To Go:
Arrived

Flight Plot

Page will automatically refresh every two minutes.

Flight plan parsing failed; only flown route is shown


Map Options




Map Legend


Flown Route
Filed Route
Departure Airport
Arrival Airport
Navaid (VOR, NDB)
Fix

Horizontal Profiles

Position Reports

Time Latitude Longitude Heading Altitude Ground
Speed
06-Jul-20 13:53 33.423676 -112.016615 90 1148ft 0kts
06-Jul-20 13:54 33.423676 -112.016615 90 1148ft 0kts
06-Jul-20 13:55 33.423676 -112.016615 90 1148ft 0kts
06-Jul-20 13:56 33.423676 -112.016615 90 1148ft 0kts
06-Jul-20 13:57 33.423676 -112.016615 90 1148ft 0kts
06-Jul-20 13:58 33.423676 -112.016615 90 1148ft 0kts
06-Jul-20 13:59 33.423676 -112.016615 90 1148ft 0kts
06-Jul-20 14:00 33.423676 -112.016615 90 1148ft 0kts
06-Jul-20 14:01 33.423676 -112.016615 90 1148ft 0kts
06-Jul-20 14:02 33.423676 -112.016615 90 1148ft 0kts
06-Jul-20 14:03 33.423676 -112.016615 90 1148ft 0kts
06-Jul-20 14:04 33.423676 -112.016615 90 1148ft 0kts
06-Jul-20 14:05 33.423676 -112.016615 90 1148ft 0kts
06-Jul-20 14:06 33.423676 -112.016615 90 1148ft 0kts
06-Jul-20 14:07 33.423676 -112.016615 90 1148ft 0kts
06-Jul-20 14:08 33.423676 -112.016615 90 1148ft 0kts
06-Jul-20 14:09 33.423676 -112.016615 90 1148ft 0kts
06-Jul-20 14:10 33.423676 -112.016615 90 1148ft 0kts
06-Jul-20 14:11 33.423676 -112.016615 90 1148ft 0kts
06-Jul-20 14:12 33.423676 -112.016615 90 1148ft 0kts
06-Jul-20 14:13 33.423676 -112.016615 90 1148ft 0kts
06-Jul-20 14:14 33.423676 -112.016615 90 1148ft 0kts
06-Jul-20 14:15 33.423683 -112.017174 90 1148ft 2kts
06-Jul-20 14:16 33.423665 -112.017340 8 1148ft 0kts
06-Jul-20 14:17 33.423665 -112.017340 8 1148ft 0kts
06-Jul-20 14:18 33.423665 -112.017340 8 1148ft 0kts
06-Jul-20 14:19 33.423665 -112.017340 8 1148ft 0kts
06-Jul-20 14:20 33.423665 -112.017340 8 1148ft 0kts
06-Jul-20 14:21 33.423665 -112.017340 8 1148ft 0kts
06-Jul-20 14:22 33.423665 -112.017340 8 1148ft 0kts
06-Jul-20 14:23 33.423741 -112.017327 8 1148ft 5kts
06-Jul-20 14:24 33.427631 -112.017071 67 1148ft 12kts
06-Jul-20 14:25 33.427727 -112.013188 89 1148ft 10kts
06-Jul-20 14:26 33.427746 -112.009884 89 1148ft 9kts
06-Jul-20 14:27 33.427735 -112.007042 89 1148ft 8kts
06-Jul-20 14:28 33.428135 -112.005342 7 1148ft 10kts
06-Jul-20 14:29 33.429940 -112.001686 91 1148ft 20kts
06-Jul-20 14:30 33.429917 -111.994341 91 1148ft 14kts
06-Jul-20 14:31 33.431033 -111.999649 269 1148ft 79kts
06-Jul-20 14:32 33.431343 -112.050600 271 2079ft 175kts
06-Jul-20 14:33 33.419951 -112.105183 248 3241ft 173kts
06-Jul-20 14:34 33.401899 -112.159938 248 4117ft 179kts
06-Jul-20 14:35 33.393090 -112.227834 276 4813ft 251kts
06-Jul-20 14:36 33.408705 -112.320115 279 6768ft 295kts
06-Jul-20 14:37 33.423481 -112.418185 279 9839ft 305kts
06-Jul-20 14:38 33.439198 -112.525760 278 11417ft 369kts
06-Jul-20 14:39 33.451880 -112.655440 268 13661ft 406kts
06-Jul-20 14:40 33.453402 -112.794621 273 16317ft 429kts
06-Jul-20 14:41 33.477892 -112.937709 281 18919ft 448kts
06-Jul-20 14:42 33.505787 -113.085878 281 21336ft 463kts
06-Jul-20 14:43 33.534700 -113.239008 282 23509ft 478kts
06-Jul-20 14:44 33.563423 -113.396549 281 25586ft 488kts
06-Jul-20 14:45 33.592820 -113.556804 282 27462ft 498kts
06-Jul-20 14:46 33.623131 -113.719356 282 29667ft 493kts
06-Jul-20 14:47 33.652440 -113.878859 281 31643ft 487kts
06-Jul-20 14:49 33.681151 -114.036224 281 33318ft 479kts
06-Jul-20 14:50 33.709606 -114.191996 282 33830ft 478kts
06-Jul-20 14:51 33.738082 -114.348000 281 33840ft 477kts
06-Jul-20 14:52 33.765855 -114.503914 281 33831ft 477kts
06-Jul-20 14:53 33.780604 -114.662238 272 33831ft 477kts
06-Jul-20 14:54 33.788796 -114.821261 273 33832ft 475kts
06-Jul-20 14:55 33.797635 -114.979839 274 33836ft 475kts
06-Jul-20 14:56 33.807000 -115.138326 273 33840ft 474kts
06-Jul-20 14:57 33.815343 -115.296124 273 33848ft 472kts
06-Jul-20 14:58 33.825947 -115.453338 282 33859ft 471kts
06-Jul-20 14:59 33.869554 -115.602164 290 33861ft 472kts
06-Jul-20 15:00 33.917173 -115.749158 289 33869ft 472kts
06-Jul-20 15:01 33.964454 -115.896483 289 33882ft 471kts
06-Jul-20 15:02 34.011550 -116.043447 289 33908ft 471kts
06-Jul-20 15:03 34.058364 -116.191198 289 33946ft 471kts
06-Jul-20 15:04 34.104859 -116.338794 289 33970ft 470kts
06-Jul-20 15:05 34.151137 -116.486441 289 34014ft 470kts
06-Jul-20 15:06 34.197050 -116.633652 289 34146ft 469kts
06-Jul-20 15:06 34.235201 -116.756527 289 34261ft 468kts
06-Jul-20 15:08 34.287030 -116.924276 289 34308ft 467kts
06-Jul-20 15:09 34.332241 -117.071380 289 34179ft 466kts
06-Jul-20 15:09 34.369340 -117.192637 289 34082ft 465kts
06-Jul-20 15:11 34.421556 -117.364157 289 33987ft 465kts
06-Jul-20 15:11 34.458655 -117.486633 289 33996ft 465kts
06-Jul-20 15:12 34.503040 -117.633840 289 33980ft 465kts
06-Jul-20 15:13 34.547557 -117.781127 289 33992ft 464kts
06-Jul-20 15:14 34.591402 -117.928669 288 33983ft 463kts
06-Jul-20 15:15 34.637448 -118.072872 297 34000ft 463kts
06-Jul-20 15:16 34.707211 -118.204733 301 33982ft 465kts
06-Jul-20 15:17 34.778512 -118.335851 301 34001ft 464kts
06-Jul-20 15:18 34.849514 -118.466948 301 34081ft 463kts
06-Jul-20 15:19 34.920489 -118.598343 301 34128ft 463kts
06-Jul-20 15:20 34.984509 -118.717735 301 34129ft 463kts
06-Jul-20 15:21 35.054554 -118.848904 300 34109ft 462kts
06-Jul-20 15:22 35.117305 -118.966840 300 34065ft 462kts
06-Jul-20 15:23 35.187147 -119.098571 300 33982ft 462kts
06-Jul-20 15:24 35.257024 -119.230868 300 33962ft 461kts
06-Jul-20 15:25 35.326519 -119.362938 300 33965ft 461kts
06-Jul-20 15:26 35.395752 -119.495014 300 33973ft 460kts
06-Jul-20 15:27 35.464505 -119.626672 300 33947ft 459kts
06-Jul-20 15:28 35.533649 -119.758978 299 33947ft 458kts
06-Jul-20 15:29 35.601890 -119.891105 299 33949ft 457kts
06-Jul-20 15:30 35.650578 -120.024245 280 33967ft 453kts
06-Jul-20 15:31 35.666847 -120.177157 276 33975ft 451kts
06-Jul-20 15:32 35.681491 -120.323655 282 33967ft 451kts
06-Jul-20 15:33 35.728778 -120.466970 293 33980ft 454kts
06-Jul-20 15:34 35.782970 -120.607449 292 33980ft 454kts
06-Jul-20 15:35 35.836607 -120.748616 293 33981ft 454kts
06-Jul-20 15:36 35.888188 -120.883872 292 33983ft 453kts
06-Jul-20 15:37 35.940469 -121.022185 292 33194ft 439kts
06-Jul-20 15:38 35.991255 -121.157310 292 31266ft 428kts
06-Jul-20 15:39 36.040412 -121.289538 292 29368ft 420kts
06-Jul-20 15:40 36.113518 -121.399468 319 27453ft 425kts
06-Jul-20 15:41 36.212769 -121.477780 323 25570ft 420kts
06-Jul-20 15:42 36.310619 -121.553681 323 23718ft 411kts
06-Jul-20 15:43 36.405143 -121.628054 323 22506ft 388kts
06-Jul-20 15:44 36.497280 -121.700715 323 20665ft 386kts
06-Jul-20 15:45 36.578571 -121.764728 323 19125ft 376kts
06-Jul-20 15:46 36.658225 -121.827963 323 17545ft 368kts
06-Jul-20 15:47 36.740449 -121.890595 334 15945ft 363kts
06-Jul-20 15:48 36.838297 -121.921474 345 14298ft 360kts
06-Jul-20 15:49 36.935362 -121.948332 345 12722ft 353kts
06-Jul-20 15:50 37.027492 -121.981964 340 11142ft 346kts
06-Jul-20 15:51 37.112825 -122.015706 340 10280ft 317kts
06-Jul-20 15:52 37.192887 -122.047133 340 9390ft 292kts
06-Jul-20 15:53 37.269497 -122.077212 340 8076ft 286kts
06-Jul-20 15:54 37.345323 -122.107061 340 6720ft 283kts
06-Jul-20 15:55 37.416587 -122.134664 340 5402ft 263kts
06-Jul-20 15:56 37.486698 -122.157157 347 3957ft 258kts
06-Jul-20 15:57 37.544234 -122.194888 305 2920ft 218kts
06-Jul-20 15:58 37.571748 -122.258245 295 1762ft 186kts
06-Jul-20 15:59 37.593329 -122.306873 294 940ft 139kts
06-Jul-20 16:00 37.611086 -122.351232 293 181ft 147kts
06-Jul-20 16:01 37.623991 -122.382073 295 26ft 28kts
06-Jul-20 16:02 37.627804 -122.387489 298 26ft 18kts
06-Jul-20 16:03 37.630344 -122.392284 339 26ft 17kts
06-Jul-20 16:04 37.631257 -122.392638 8 26ft 0kts
06-Jul-20 16:05 37.631257 -122.392638 8 26ft 0kts
06-Jul-20 16:06 37.631545 -122.392268 62 26ft 2kts
06-Jul-20 16:07 37.631979 -122.391483 13 26ft 2kts
06-Jul-20 16:08 37.632759 -122.391694 342 26ft 2kts
06-Jul-20 16:09 37.633514 -122.391560 41 26ft 2kts
06-Jul-20 16:10 37.633971 -122.390697 64 26ft 3kts
06-Jul-20 16:11 37.634296 -122.389734 73 26ft 2kts
06-Jul-20 16:12 37.634586 -122.388771 52 26ft 2kts
06-Jul-20 16:13 37.635183 -122.388126 8 26ft 2kts
06-Jul-20 16:14 37.635923 -122.388468 329 26ft 2kts
06-Jul-20 16:15 37.636644 -122.389003 329 26ft 2kts

Navigation Log

Ident Type
Flight plan parsing failed, navigation log unavailable